Portneuf, Canada
Current Conditions -  °F | °C
As of 5:22 AM on Sunday 26 Oct 2014 (Local Time) from CYOY Reporting Station
Overcast Overcast  
Wind Chill: 41°   Ceiling: 400
Heat Index: 41°   Visibility: 9mi
Dew Point: 39°   Wind: 0mph
Humidity: 93%   Direction: NA
Pressure: 29.34"   Gusts: NA
Location:  46.69°N, 71.89°W
Report Text: CYOY 260922Z AUTO 00000KT 9SM OVC004 OVC013 05/04 A2934
Loading
Personal Weather Stations






























Interactive Weather Map
Tropical Storm Tracking
New forecast layout! Learn more

10-Day Weather Forecast

Advertisements
Track Severe Weather on mobile